sensor_id;sensor_type;location;lat;lon;timestamp;P1;durP1;ratioP1;P2;durP2;ratioP2
21034;SDS011;10676;50.848;3.272;2022-07-05T00:00:44;8.38;;;7.53;;
21034;SDS011;10676;50.848;3.272;2022-07-05T00:03:09;12.93;;;8.48;;
21034;SDS011;10676;50.848;3.272;2022-07-05T00:05:36;10.55;;;8.93;;
21034;SDS011;10676;50.848;3.272;2022-07-05T00:08:02;8.98;;;8.20;;
21034;SDS011;10676;50.848;3.272;2022-07-05T00:10:30;11.95;;;8.25;;
21034;SDS011;10676;50.848;3.272;2022-07-05T00:12:56;7.78;;;7.07;;
21034;SDS011;10676;50.848;3.272;2022-07-05T00:15:22;10.38;;;8.15;;
21034;SDS011;10676;50.848;3.272;2022-07-05T00:17:48;8.38;;;7.25;;
21034;SDS011;10676;50.848;3.272;2022-07-05T00:20:14;10.25;;;9.40;;
21034;SDS011;10676;50.848;3.272;2022-07-05T00:22:40;12.20;;;11.15;;
21034;SDS011;10676;50.848;3.272;2022-07-05T00:25:06;12.65;;;10.68;;
21034;SDS011;10676;50.848;3.272;2022-07-05T00:27:32;13.75;;;10.70;;
21034;SDS011;10676;50.848;3.272;2022-07-05T00:29:57;10.02;;;7.88;;
21034;SDS011;10676;50.848;3.272;2022-07-05T00:32:23;9.52;;;8.60;;
21034;SDS011;10676;50.848;3.272;2022-07-05T00:34:50;12.45;;;11.30;;
21034;SDS011;10676;50.848;3.272;2022-07-05T00:37:16;11.75;;;10.20;;
21034;SDS011;10676;50.848;3.272;2022-07-05T00:39:41;9.98;;;8.93;;
21034;SDS011;10676;50.848;3.272;2022-07-05T00:42:07;12.90;;;11.18;;
21034;SDS011;10676;50.848;3.272;2022-07-05T00:44:33;12.40;;;11.50;;
21034;SDS011;10676;50.848;3.272;2022-07-05T00:47:02;10.55;;;8.70;;
21034;SDS011;10676;50.848;3.272;2022-07-05T00:49:29;10.80;;;9.70;;
21034;SDS011;10676;50.848;3.272;2022-07-05T00:51:56;13.23;;;11.93;;
21034;SDS011;10676;50.848;3.272;2022-07-05T00:54:23;8.98;;;8.00;;
21034;SDS011;10676;50.848;3.272;2022-07-05T00:56:49;12.20;;;7.78;;
21034;SDS011;10676;50.848;3.272;2022-07-05T00:59:14;10.95;;;9.40;;
21034;SDS011;10676;50.848;3.272;2022-07-05T01:01:40;10.38;;;9.00;;
21034;SDS011;10676;50.848;3.272;2022-07-05T01:04:06;11.10;;;10.10;;
21034;SDS011;10676;50.848;3.272;2022-07-05T01:06:32;13.13;;;9.80;;
21034;SDS011;10676;50.848;3.272;2022-07-05T01:08:58;10.52;;;8.75;;
21034;SDS011;10676;50.848;3.272;2022-07-05T01:11:24;11.35;;;8.20;;
21034;SDS011;10676;50.848;3.272;2022-07-05T01:13:50;9.93;;;8.77;;
21034;SDS011;10676;50.848;3.272;2022-07-05T01:16:16;12.32;;;9.32;;
21034;SDS011;10676;50.848;3.272;2022-07-05T01:18:42;10.02;;;9.07;;
21034;SDS011;10676;50.848;3.272;2022-07-05T01:21:09;13.52;;;9.27;;
21034;SDS011;10676;50.848;3.272;2022-07-05T01:23:38;11.23;;;9.32;;
21034;SDS011;10676;50.848;3.272;2022-07-05T01:26:04;9.27;;;8.35;;
21034;SDS011;10676;50.848;3.272;2022-07-05T01:28:32;9.95;;;8.38;;
21034;SDS011;10676;50.848;3.272;2022-07-05T01:31:00;13.38;;;9.35;;
21034;SDS011;10676;50.848;3.272;2022-07-05T01:33:29;9.50;;;8.60;;
21034;SDS011;10676;50.848;3.272;2022-07-05T01:35:56;12.57;;;8.35;;
21034;SDS011;10676;50.848;3.272;2022-07-05T01:38:22;11.55;;;9.15;;
21034;SDS011;10676;50.848;3.272;2022-07-05T01:40:48;16.35;;;8.52;;
21034;SDS011;10676;50.848;3.272;2022-07-05T01:43:17;10.40;;;9.15;;
21034;SDS011;10676;50.848;3.272;2022-07-05T01:45:47;11.10;;;9.18;;
21034;SDS011;10676;50.848;3.272;2022-07-05T01:48:14;9.70;;;8.73;;
21034;SDS011;10676;50.848;3.272;2022-07-05T01:50:50;12.25;;;10.55;;
21034;SDS011;10676;50.848;3.272;2022-07-05T01:53:18;15.63;;;11.30;;
21034;SDS011;10676;50.848;3.272;2022-07-05T01:55:55;14.32;;;10.40;;
21034;SDS011;10676;50.848;3.272;2022-07-05T01:58:22;18.40;;;12.15;;
21034;SDS011;10676;50.848;3.272;2022-07-05T02:00:51;19.45;;;11.25;;
21034;SDS011;10676;50.848;3.272;2022-07-05T02:03:18;13.32;;;12.10;;
21034;SDS011;10676;50.848;3.272;2022-07-05T02:05:44;13.90;;;12.40;;
21034;SDS011;10676;50.848;3.272;2022-07-05T02:08:11;16.75;;;12.10;;
21034;SDS011;10676;50.848;3.272;2022-07-05T02:10:38;15.13;;;11.93;;
21034;SDS011;10676;50.848;3.272;2022-07-05T02:13:05;15.18;;;11.95;;
21034;SDS011;10676;50.848;3.272;2022-07-05T02:15:31;12.48;;;10.13;;
21034;SDS011;10676;50.848;3.272;2022-07-05T02:17:58;18.10;;;11.90;;
21034;SDS011;10676;50.848;3.272;2022-07-05T02:20:25;16.88;;;11.45;;
21034;SDS011;10676;50.848;3.272;2022-07-05T02:22:51;14.88;;;12.85;;
21034;SDS011;10676;50.848;3.272;2022-07-05T02:25:17;21.25;;;12.60;;
21034;SDS011;10676;50.848;3.272;2022-07-05T02:27:42;13.23;;;10.60;;
21034;SDS011;10676;50.848;3.272;2022-07-05T02:30:08;14.00;;;10.63;;
21034;SDS011;10676;50.848;3.272;2022-07-05T02:32:34;15.75;;;10.55;;
21034;SDS011;10676;50.848;3.272;2022-07-05T02:35:00;11.50;;;10.27;;
21034;SDS011;10676;50.848;3.272;2022-07-05T02:37:26;18.50;;;11.48;;
21034;SDS011;10676;50.848;3.272;2022-07-05T02:39:52;16.90;;;10.73;;
21034;SDS011;10676;50.848;3.272;2022-07-05T02:42:19;14.02;;;10.43;;
21034;SDS011;10676;50.848;3.272;2022-07-05T02:44:44;12.30;;;10.30;;
21034;SDS011;10676;50.848;3.272;2022-07-05T02:47:10;15.95;;;10.82;;
21034;SDS011;10676;50.848;3.272;2022-07-05T02:49:36;18.65;;;10.85;;
21034;SDS011;10676;50.848;3.272;2022-07-05T02:52:01;18.88;;;10.13;;
21034;SDS011;10676;50.848;3.272;2022-07-05T02:54:27;21.40;;;11.68;;
21034;SDS011;10676;50.848;3.272;2022-07-05T02:56:53;20.58;;;12.63;;
21034;SDS011;10676;50.848;3.272;2022-07-05T02:59:18;12.57;;;9.90;;
21034;SDS011;10676;50.848;3.272;2022-07-05T03:01:44;18.63;;;11.27;;
21034;SDS011;10676;50.848;3.272;2022-07-05T03:04:10;16.15;;;10.80;;
21034;SDS011;10676;50.848;3.272;2022-07-05T03:06:36;22.05;;;10.73;;
21034;SDS011;10676;50.848;3.272;2022-07-05T03:09:02;15.15;;;11.10;;
21034;SDS011;10676;50.848;3.272;2022-07-05T03:11:27;14.32;;;10.98;;
21034;SDS011;10676;50.848;3.272;2022-07-05T03:13:53;18.20;;;11.10;;
21034;SDS011;10676;50.848;3.272;2022-07-05T03:16:19;21.65;;;10.82;;
21034;SDS011;10676;50.848;3.272;2022-07-05T03:18:44;22.42;;;10.85;;
21034;SDS011;10676;50.848;3.272;2022-07-05T03:21:10;21.13;;;11.40;;
21034;SDS011;10676;50.848;3.272;2022-07-05T03:23:36;20.92;;;11.30;;
21034;SDS011;10676;50.848;3.272;2022-07-05T03:26:01;20.70;;;11.52;;
21034;SDS011;10676;50.848;3.272;2022-07-05T03:28:27;21.92;;;10.43;;
21034;SDS011;10676;50.848;3.272;2022-07-05T03:30:52;22.13;;;10.75;;
21034;SDS011;10676;50.848;3.272;2022-07-05T03:33:18;21.67;;;11.55;;
21034;SDS011;10676;50.848;3.272;2022-07-05T03:35:44;22.92;;;11.88;;
21034;SDS011;10676;50.848;3.272;2022-07-05T03:38:09;27.17;;;12.23;;
21034;SDS011;10676;50.848;3.272;2022-07-05T03:40:35;20.65;;;11.68;;
21034;SDS011;10676;50.848;3.272;2022-07-05T03:43:01;21.25;;;11.70;;
21034;SDS011;10676;50.848;3.272;2022-07-05T03:45:26;18.35;;;10.77;;
21034;SDS011;10676;50.848;3.272;2022-07-05T03:47:52;13.32;;;11.00;;
21034;SDS011;10676;50.848;3.272;2022-07-05T03:50:17;23.52;;;11.95;;
21034;SDS011;10676;50.848;3.272;2022-07-05T03:52:43;20.85;;;12.40;;
21034;SDS011;10676;50.848;3.272;2022-07-05T03:55:09;20.73;;;11.32;;
21034;SDS011;10676;50.848;3.272;2022-07-05T03:57:34;17.77;;;11.88;;
21034;SDS011;10676;50.848;3.272;2022-07-05T04:00:00;24.00;;;12.13;;
21034;SDS011;10676;50.848;3.272;2022-07-05T04:02:26;17.95;;;11.27;;
21034;SDS011;10676;50.848;3.272;2022-07-05T04:04:51;20.17;;;12.75;;
21034;SDS011;10676;50.848;3.272;2022-07-05T04:07:17;20.05;;;12.02;;
21034;SDS011;10676;50.848;3.272;2022-07-05T04:09:43;17.75;;;11.50;;
21034;SDS011;10676;50.848;3.272;2022-07-05T04:12:08;20.13;;;11.68;;
21034;SDS011;10676;50.848;3.272;2022-07-05T04:14:34;24.98;;;11.20;;
21034;SDS011;10676;50.848;3.272;2022-07-05T04:17:00;17.75;;;12.38;;
21034;SDS011;10676;50.848;3.272;2022-07-05T04:19:25;23.45;;;14.25;;
21034;SDS011;10676;50.848;3.272;2022-07-05T04:21:51;23.42;;;12.25;;
21034;SDS011;10676;50.848;3.272;2022-07-05T04:24:17;20.35;;;12.18;;
21034;SDS011;10676;50.848;3.272;2022-07-05T04:26:42;21.85;;;12.68;;
21034;SDS011;10676;50.848;3.272;2022-07-05T04:29:08;22.75;;;14.68;;
21034;SDS011;10676;50.848;3.272;2022-07-05T04:31:33;29.65;;;12.60;;
21034;SDS011;10676;50.848;3.272;2022-07-05T04:33:59;24.55;;;12.88;;
21034;SDS011;10676;50.848;3.272;2022-07-05T04:36:25;23.85;;;13.68;;
21034;SDS011;10676;50.848;3.272;2022-07-05T04:38:51;25.92;;;14.00;;
21034;SDS011;10676;50.848;3.272;2022-07-05T04:41:17;31.83;;;14.18;;
21034;SDS011;10676;50.848;3.272;2022-07-05T04:43:42;24.30;;;13.15;;
21034;SDS011;10676;50.848;3.272;2022-07-05T04:46:08;25.42;;;13.20;;
21034;SDS011;10676;50.848;3.272;2022-07-05T04:48:33;25.15;;;13.93;;
21034;SDS011;10676;50.848;3.272;2022-07-05T04:50:59;25.38;;;13.80;;
21034;SDS011;10676;50.848;3.272;2022-07-05T04:53:25;26.10;;;13.30;;
21034;SDS011;10676;50.848;3.272;2022-07-05T04:55:50;24.25;;;13.38;;
21034;SDS011;10676;50.848;3.272;2022-07-05T04:58:16;19.15;;;11.85;;
21034;SDS011;10676;50.848;3.272;2022-07-05T05:00:42;27.65;;;13.55;;
21034;SDS011;10676;50.848;3.272;2022-07-05T05:03:07;21.30;;;12.63;;
21034;SDS011;10676;50.848;3.272;2022-07-05T05:05:33;22.38;;;11.85;;
21034;SDS011;10676;50.848;3.272;2022-07-05T05:07:59;19.33;;;10.63;;
21034;SDS011;10676;50.848;3.272;2022-07-05T05:10:24;17.60;;;10.32;;
21034;SDS011;10676;50.848;3.272;2022-07-05T05:12:50;21.45;;;10.00;;
21034;SDS011;10676;50.848;3.272;2022-07-05T05:15:16;19.33;;;10.23;;
21034;SDS011;10676;50.848;3.272;2022-07-05T05:17:42;21.40;;;10.48;;
21034;SDS011;10676;50.848;3.272;2022-07-05T05:20:18;17.67;;;9.50;;
21034;SDS011;10676;50.848;3.272;2022-07-05T05:22:44;20.15;;;9.75;;
21034;SDS011;10676;50.848;3.272;2022-07-05T05:25:11;16.45;;;9.48;;
21034;SDS011;10676;50.848;3.272;2022-07-05T05:27:47;24.05;;;21.75;;
21034;SDS011;10676;50.848;3.272;2022-07-05T05:30:16;30.08;;;27.73;;
21034;SDS011;10676;50.848;3.272;2022-07-05T05:32:42;18.73;;;12.60;;
21034;SDS011;10676;50.848;3.272;2022-07-05T05:35:08;14.77;;;9.82;;
21034;SDS011;10676;50.848;3.272;2022-07-05T05:40:12;12.55;;;8.27;;
21034;SDS011;10676;50.848;3.272;2022-07-05T05:42:38;14.05;;;8.63;;
21034;SDS011;10676;50.848;3.272;2022-07-05T05:45:03;20.08;;;9.02;;
21034;SDS011;10676;50.848;3.272;2022-07-05T05:47:29;17.25;;;8.57;;
21034;SDS011;10676;50.848;3.272;2022-07-05T05:49:55;21.70;;;11.40;;
21034;SDS011;10676;50.848;3.272;2022-07-05T05:52:20;14.90;;;8.93;;
21034;SDS011;10676;50.848;3.272;2022-07-05T05:54:46;17.65;;;8.88;;
21034;SDS011;10676;50.848;3.272;2022-07-05T05:57:12;15.10;;;9.95;;
21034;SDS011;10676;50.848;3.272;2022-07-05T05:59:37;17.08;;;8.75;;
21034;SDS011;10676;50.848;3.272;2022-07-05T06:02:03;14.65;;;8.35;;
21034;SDS011;10676;50.848;3.272;2022-07-05T06:04:29;13.73;;;7.70;;
21034;SDS011;10676;50.848;3.272;2022-07-05T06:06:54;12.43;;;7.45;;
21034;SDS011;10676;50.848;3.272;2022-07-05T06:09:20;14.82;;;7.25;;
21034;SDS011;10676;50.848;3.272;2022-07-05T06:11:45;16.98;;;8.23;;
21034;SDS011;10676;50.848;3.272;2022-07-05T06:14:11;15.93;;;8.25;;
21034;SDS011;10676;50.848;3.272;2022-07-05T06:16:36;14.13;;;7.65;;
21034;SDS011;10676;50.848;3.272;2022-07-05T06:19:02;15.10;;;7.47;;
21034;SDS011;10676;50.848;3.272;2022-07-05T06:21:28;16.02;;;7.35;;
21034;SDS011;10676;50.848;3.272;2022-07-05T06:23:54;15.88;;;7.20;;
21034;SDS011;10676;50.848;3.272;2022-07-05T06:26:19;17.00;;;7.43;;
21034;SDS011;10676;50.848;3.272;2022-07-05T06:28:45;19.75;;;7.55;;
21034;SDS011;10676;50.848;3.272;2022-07-05T06:31:10;13.52;;;7.60;;
21034;SDS011;10676;50.848;3.272;2022-07-05T06:33:36;13.82;;;7.57;;
21034;SDS011;10676;50.848;3.272;2022-07-05T06:36:02;19.23;;;7.60;;
21034;SDS011;10676;50.848;3.272;2022-07-05T06:38:27;15.57;;;8.07;;
21034;SDS011;10676;50.848;3.272;2022-07-05T06:40:53;13.35;;;8.90;;
21034;SDS011;10676;50.848;3.272;2022-07-05T06:43:19;15.93;;;8.30;;
21034;SDS011;10676;50.848;3.272;2022-07-05T06:45:45;17.48;;;8.70;;
21034;SDS011;10676;50.848;3.272;2022-07-05T06:48:11;16.33;;;8.30;;
21034;SDS011;10676;50.848;3.272;2022-07-05T06:50:37;14.27;;;8.30;;
21034;SDS011;10676;50.848;3.272;2022-07-05T06:53:04;11.68;;;7.70;;
21034;SDS011;10676;50.848;3.272;2022-07-05T06:55:31;13.35;;;8.75;;
21034;SDS011;10676;50.848;3.272;2022-07-05T06:58:06;13.15;;;10.32;;
21034;SDS011;10676;50.848;3.272;2022-07-05T07:00:33;16.33;;;9.60;;
21034;SDS011;10676;50.848;3.272;2022-07-05T07:02:59;15.32;;;10.05;;
21034;SDS011;10676;50.848;3.272;2022-07-05T07:05:25;16.48;;;9.68;;
21034;SDS011;10676;50.848;3.272;2022-07-05T07:07:51;11.52;;;9.27;;
21034;SDS011;10676;50.848;3.272;2022-07-05T07:10:36;12.70;;;7.55;;
21034;SDS011;10676;50.848;3.272;2022-07-05T07:13:02;12.27;;;8.05;;
21034;SDS011;10676;50.848;3.272;2022-07-05T07:15:28;13.50;;;7.47;;
21034;SDS011;10676;50.848;3.272;2022-07-05T07:17:55;9.95;;;7.45;;
21034;SDS011;10676;50.848;3.272;2022-07-05T07:20:21;15.30;;;7.85;;
21034;SDS011;10676;50.848;3.272;2022-07-05T07:22:46;10.10;;;7.57;;
21034;SDS011;10676;50.848;3.272;2022-07-05T07:25:12;10.52;;;7.25;;
21034;SDS011;10676;50.848;3.272;2022-07-05T07:27:44;8.85;;;8.02;;
21034;SDS011;10676;50.848;3.272;2022-07-05T07:30:11;9.98;;;7.93;;
21034;SDS011;10676;50.848;3.272;2022-07-05T07:32:38;9.07;;;8.07;;
21034;SDS011;10676;50.848;3.272;2022-07-05T07:35:04;12.23;;;8.45;;
21034;SDS011;10676;50.848;3.272;2022-07-05T07:37:31;8.20;;;7.47;;
21034;SDS011;10676;50.848;3.272;2022-07-05T07:39:56;12.00;;;8.48;;
21034;SDS011;10676;50.848;3.272;2022-07-05T07:42:22;8.65;;;7.85;;
21034;SDS011;10676;50.848;3.272;2022-07-05T07:44:47;9.82;;;7.63;;
21034;SDS011;10676;50.848;3.272;2022-07-05T07:47:13;9.80;;;7.40;;
21034;SDS011;10676;50.848;3.272;2022-07-05T07:49:39;8.95;;;7.35;;
21034;SDS011;10676;50.848;3.272;2022-07-05T07:52:06;7.57;;;6.78;;
21034;SDS011;10676;50.848;3.272;2022-07-05T07:54:32;7.22;;;6.25;;
21034;SDS011;10676;50.848;3.272;2022-07-05T07:56:57;7.70;;;6.00;;
21034;SDS011;10676;50.848;3.272;2022-07-05T07:59:24;8.55;;;6.30;;
21034;SDS011;10676;50.848;3.272;2022-07-05T08:01:50;6.43;;;5.80;;
21034;SDS011;10676;50.848;3.272;2022-07-05T08:04:16;7.18;;;6.18;;
21034;SDS011;10676;50.848;3.272;2022-07-05T08:06:42;6.97;;;6.22;;
21034;SDS011;10676;50.848;3.272;2022-07-05T08:09:08;7.75;;;7.05;;
21034;SDS011;10676;50.848;3.272;2022-07-05T08:11:34;7.85;;;6.82;;
21034;SDS011;10676;50.848;3.272;2022-07-05T08:14:00;7.78;;;7.03;;
21034;SDS011;10676;50.848;3.272;2022-07-05T08:16:25;8.55;;;6.00;;
21034;SDS011;10676;50.848;3.272;2022-07-05T08:18:51;8.25;;;6.38;;
21034;SDS011;10676;50.848;3.272;2022-07-05T08:21:35;10.30;;;6.40;;
21034;SDS011;10676;50.848;3.272;2022-07-05T08:24:07;7.32;;;6.60;;
21034;SDS011;10676;50.848;3.272;2022-07-05T08:26:34;7.32;;;6.22;;
21034;SDS011;10676;50.848;3.272;2022-07-05T08:29:01;7.25;;;6.40;;
21034;SDS011;10676;50.848;3.272;2022-07-05T08:31:28;9.63;;;6.18;;
21034;SDS011;10676;50.848;3.272;2022-07-05T08:33:56;6.80;;;5.88;;
21034;SDS011;10676;50.848;3.272;2022-07-05T08:36:21;7.85;;;5.88;;
21034;SDS011;10676;50.848;3.272;2022-07-05T08:38:48;8.55;;;6.82;;
21034;SDS011;10676;50.848;3.272;2022-07-05T08:41:13;6.55;;;5.78;;
21034;SDS011;10676;50.848;3.272;2022-07-05T08:43:44;7.55;;;6.60;;
21034;SDS011;10676;50.848;3.272;2022-07-05T08:46:11;7.57;;;6.85;;
21034;SDS011;10676;50.848;3.272;2022-07-05T08:48:39;8.40;;;6.55;;
21034;SDS011;10676;50.848;3.272;2022-07-05T08:51:13;7.60;;;6.90;;
21034;SDS011;10676;50.848;3.272;2022-07-05T08:53:46;7.25;;;6.63;;
21034;SDS011;10676;50.848;3.272;2022-07-05T08:56:12;7.40;;;6.05;;
21034;SDS011;10676;50.848;3.272;2022-07-05T08:58:39;7.72;;;6.97;;
21034;SDS011;10676;50.848;3.272;2022-07-05T09:01:06;7.55;;;6.95;;
21034;SDS011;10676;50.848;3.272;2022-07-05T09:03:33;7.88;;;7.43;;
21034;SDS011;10676;50.848;3.272;2022-07-05T09:06:03;8.60;;;7.70;;
21034;SDS011;10676;50.848;3.272;2022-07-05T09:08:33;8.40;;;7.90;;
21034;SDS011;10676;50.848;3.272;2022-07-05T09:11:05;8.85;;;7.95;;
21034;SDS011;10676;50.848;3.272;2022-07-05T09:13:36;8.77;;;8.07;;
21034;SDS011;10676;50.848;3.272;2022-07-05T09:16:04;8.82;;;7.95;;
21034;SDS011;10676;50.848;3.272;2022-07-05T09:18:46;7.78;;;7.20;;
21034;SDS011;10676;50.848;3.272;2022-07-05T09:21:12;8.18;;;7.68;;
21034;SDS011;10676;50.848;3.272;2022-07-05T09:23:39;9.13;;;8.38;;
21034;SDS011;10676;50.848;3.272;2022-07-05T09:26:04;8.60;;;7.93;;
21034;SDS011;10676;50.848;3.272;2022-07-05T09:28:30;9.77;;;9.07;;
21034;SDS011;10676;50.848;3.272;2022-07-05T09:30:56;10.88;;;9.82;;
21034;SDS011;10676;50.848;3.272;2022-07-05T09:33:21;11.32;;;10.27;;
21034;SDS011;10676;50.848;3.272;2022-07-05T09:35:51;10.77;;;9.85;;
21034;SDS011;10676;50.848;3.272;2022-07-05T09:38:24;10.50;;;9.90;;
21034;SDS011;10676;50.848;3.272;2022-07-05T09:40:51;10.23;;;9.43;;
21034;SDS011;10676;50.848;3.272;2022-07-05T09:43:19;8.95;;;8.07;;
21034;SDS011;10676;50.848;3.272;2022-07-05T09:45:50;9.93;;;9.02;;
21034;SDS011;10676;50.848;3.272;2022-07-05T09:48:19;9.18;;;8.32;;
21034;SDS011;10676;50.848;3.272;2022-07-05T09:50:44;9.57;;;8.80;;
21034;SDS011;10676;50.848;3.272;2022-07-05T09:53:10;10.43;;;9.73;;
21034;SDS011;10676;50.848;3.272;2022-07-05T09:55:39;10.32;;;9.55;;
21034;SDS011;10676;50.848;3.272;2022-07-05T09:58:05;10.15;;;9.55;;
21034;SDS011;10676;50.848;3.272;2022-07-05T10:00:32;8.30;;;7.90;;
21034;SDS011;10676;50.848;3.272;2022-07-05T10:02:58;8.18;;;7.70;;
21034;SDS011;10676;50.848;3.272;2022-07-05T10:05:27;7.15;;;6.65;;
21034;SDS011;10676;50.848;3.272;2022-07-05T10:08:00;7.03;;;6.60;;
21034;SDS011;10676;50.848;3.272;2022-07-05T10:10:30;6.72;;;6.25;;
21034;SDS011;10676;50.848;3.272;2022-07-05T10:13:00;7.22;;;6.82;;
21034;SDS011;10676;50.848;3.272;2022-07-05T10:15:30;7.85;;;7.22;;
21034;SDS011;10676;50.848;3.272;2022-07-05T10:18:04;7.13;;;6.82;;
21034;SDS011;10676;50.848;3.272;2022-07-05T10:20:45;7.25;;;6.85;;
21034;SDS011;10676;50.848;3.272;2022-07-05T10:23:15;6.88;;;6.47;;
21034;SDS011;10676;50.848;3.272;2022-07-05T10:25:45;6.97;;;6.47;;
21034;SDS011;10676;50.848;3.272;2022-07-05T10:28:13;6.57;;;6.28;;
21034;SDS011;10676;50.848;3.272;2022-07-05T10:30:40;6.57;;;6.07;;
21034;SDS011;10676;50.848;3.272;2022-07-05T10:33:06;7.75;;;7.25;;
21034;SDS011;10676;50.848;3.272;2022-07-05T10:35:33;8.43;;;7.45;;
21034;SDS011;10676;50.848;3.272;2022-07-05T10:37:59;8.40;;;7.72;;
21034;SDS011;10676;50.848;3.272;2022-07-05T10:40:26;6.65;;;6.30;;
21034;SDS011;10676;50.848;3.272;2022-07-05T10:42:58;6.78;;;6.38;;
21034;SDS011;10676;50.848;3.272;2022-07-05T10:54:01;8.07;;;7.57;;
21034;SDS011;10676;50.848;3.272;2022-07-05T11:03:38;7.50;;;6.93;;
21034;SDS011;10676;50.848;3.272;2022-07-05T11:06:05;6.22;;;5.75;;
21034;SDS011;10676;50.848;3.272;2022-07-05T11:11:23;6.10;;;5.60;;
21034;SDS011;10676;50.848;3.272;2022-07-05T11:13:49;7.72;;;6.28;;
21034;SDS011;10676;50.848;3.272;2022-07-05T11:16:31;5.47;;;5.18;;
21034;SDS011;10676;50.848;3.272;2022-07-05T11:19:13;6.38;;;5.88;;
21034;SDS011;10676;50.848;3.272;2022-07-05T11:21:59;6.90;;;6.50;;
21034;SDS011;10676;50.848;3.272;2022-07-05T11:24:32;6.45;;;6.00;;
21034;SDS011;10676;50.848;3.272;2022-07-05T11:27:00;6.53;;;6.00;;
21034;SDS011;10676;50.848;3.272;2022-07-05T11:32:17;7.22;;;6.80;;
21034;SDS011;10676;50.848;3.272;2022-07-05T11:34:51;7.28;;;6.88;;
21034;SDS011;10676;50.848;3.272;2022-07-05T11:42:30;6.65;;;6.25;;
21034;SDS011;10676;50.848;3.272;2022-07-05T11:44:56;6.63;;;6.13;;
21034;SDS011;10676;50.848;3.272;2022-07-05T11:47:22;6.47;;;6.05;;
21034;SDS011;10676;50.848;3.272;2022-07-05T11:49:57;7.25;;;6.78;;
21034;SDS011;10676;50.848;3.272;2022-07-05T11:52:27;6.78;;;6.32;;
21034;SDS011;10676;50.848;3.272;2022-07-05T11:54:54;6.43;;;5.80;;
21034;SDS011;10676;50.848;3.272;2022-07-05T11:57:21;7.78;;;6.07;;
21034;SDS011;10676;50.848;3.272;2022-07-05T11:59:48;7.00;;;6.30;;
21034;SDS011;10676;50.848;3.272;2022-07-05T12:02:14;6.50;;;6.20;;
21034;SDS011;10676;50.848;3.272;2022-07-05T12:04:39;6.53;;;6.10;;
21034;SDS011;10676;50.848;3.272;2022-07-05T12:07:05;6.70;;;6.30;;
21034;SDS011;10676;50.848;3.272;2022-07-05T12:09:32;7.07;;;6.47;;
21034;SDS011;10676;50.848;3.272;2022-07-05T12:12:22;6.38;;;6.00;;
21034;SDS011;10676;50.848;3.272;2022-07-05T12:15:17;6.65;;;6.15;;
21034;SDS011;10676;50.848;3.272;2022-07-05T12:17:45;7.55;;;7.07;;
21034;SDS011;10676;50.848;3.272;2022-07-05T12:20:13;7.47;;;6.82;;
21034;SDS011;10676;50.848;3.272;2022-07-05T12:22:45;7.57;;;7.00;;
21034;SDS011;10676;50.848;3.272;2022-07-05T12:25:12;7.70;;;7.10;;
21034;SDS011;10676;50.848;3.272;2022-07-05T12:27:42;7.40;;;7.00;;
21034;SDS011;10676;50.848;3.272;2022-07-05T12:30:10;6.88;;;6.47;;
21034;SDS011;10676;50.848;3.272;2022-07-05T12:32:52;6.95;;;6.55;;
21034;SDS011;10676;50.848;3.272;2022-07-05T12:35:28;7.28;;;6.68;;
21034;SDS011;10676;50.848;3.272;2022-07-05T12:38:18;7.43;;;6.82;;
21034;SDS011;10676;50.848;3.272;2022-07-05T12:40:45;7.25;;;6.72;;
21034;SDS011;10676;50.848;3.272;2022-07-05T12:43:25;6.95;;;6.57;;
21034;SDS011;10676;50.848;3.272;2022-07-05T12:46:03;7.15;;;6.65;;
21034;SDS011;10676;50.848;3.272;2022-07-05T12:48:31;7.80;;;7.40;;
21034;SDS011;10676;50.848;3.272;2022-07-05T12:51:01;7.50;;;7.00;;
21034;SDS011;10676;50.848;3.272;2022-07-05T12:53:28;6.88;;;6.47;;
21034;SDS011;10676;50.848;3.272;2022-07-05T12:56:13;6.82;;;6.32;;
21034;SDS011;10676;50.848;3.272;2022-07-05T12:59:02;7.50;;;6.88;;
21034;SDS011;10676;50.848;3.272;2022-07-05T13:01:42;6.60;;;6.10;;
21034;SDS011;10676;50.848;3.272;2022-07-05T13:14:52;7.05;;;6.60;;
21034;SDS011;10676;50.848;3.272;2022-07-05T13:17:19;7.63;;;7.18;;
21034;SDS011;10676;50.848;3.272;2022-07-05T13:19:47;7.28;;;6.93;;
21034;SDS011;10676;50.848;3.272;2022-07-05T13:22:14;7.68;;;6.97;;
21034;SDS011;10676;50.848;3.272;2022-07-05T13:24:40;8.73;;;8.32;;
21034;SDS011;10676;50.848;3.272;2022-07-05T13:27:06;7.90;;;7.40;;
21034;SDS011;10676;50.848;3.272;2022-07-05T13:29:34;8.48;;;7.78;;
21034;SDS011;10676;50.848;3.272;2022-07-05T13:32:00;8.60;;;8.10;;
21034;SDS011;10676;50.848;3.272;2022-07-05T13:34:26;7.97;;;7.57;;
21034;SDS011;10676;50.848;3.272;2022-07-05T13:36:53;7.95;;;7.35;;
21034;SDS011;10676;50.848;3.272;2022-07-05T13:39:19;8.07;;;7.38;;
21034;SDS011;10676;50.848;3.272;2022-07-05T13:41:49;7.20;;;6.80;;
21034;SDS011;10676;50.848;3.272;2022-07-05T13:44:18;8.27;;;7.60;;
21034;SDS011;10676;50.848;3.272;2022-07-05T13:46:44;7.03;;;6.47;;
21034;SDS011;10676;50.848;3.272;2022-07-05T13:49:09;8.30;;;7.82;;
21034;SDS011;10676;50.848;3.272;2022-07-05T13:51:35;7.88;;;7.38;;
21034;SDS011;10676;50.848;3.272;2022-07-05T13:54:01;7.80;;;7.30;;
21034;SDS011;10676;50.848;3.272;2022-07-05T13:56:27;8.05;;;7.65;;
21034;SDS011;10676;50.848;3.272;2022-07-05T13:58:53;8.05;;;7.50;;
21034;SDS011;10676;50.848;3.272;2022-07-05T14:01:20;7.50;;;7.10;;
21034;SDS011;10676;50.848;3.272;2022-07-05T14:03:51;8.48;;;7.88;;
21034;SDS011;10676;50.848;3.272;2022-07-05T14:06:21;8.25;;;7.75;;
21034;SDS011;10676;50.848;3.272;2022-07-05T14:08:47;7.57;;;7.18;;
21034;SDS011;10676;50.848;3.272;2022-07-05T14:11:14;8.50;;;8.10;;
21034;SDS011;10676;50.848;3.272;2022-07-05T14:13:40;7.43;;;6.93;;
21034;SDS011;10676;50.848;3.272;2022-07-05T14:16:06;7.22;;;6.93;;
21034;SDS011;10676;50.848;3.272;2022-07-05T14:18:32;8.25;;;7.90;;
21034;SDS011;10676;50.848;3.272;2022-07-05T14:20:58;8.98;;;8.20;;
21034;SDS011;10676;50.848;3.272;2022-07-05T14:23:24;8.52;;;8.07;;
21034;SDS011;10676;50.848;3.272;2022-07-05T14:25:50;8.25;;;7.68;;
21034;SDS011;10676;50.848;3.272;2022-07-05T14:28:15;9.25;;;8.55;;
21034;SDS011;10676;50.848;3.272;2022-07-05T14:30:42;10.60;;;10.05;;
21034;SDS011;10676;50.848;3.272;2022-07-05T14:33:10;9.40;;;8.65;;
21034;SDS011;10676;50.848;3.272;2022-07-05T14:35:38;8.25;;;7.85;;
21034;SDS011;10676;50.848;3.272;2022-07-05T14:38:05;8.45;;;7.90;;
21034;SDS011;10676;50.848;3.272;2022-07-05T14:40:32;7.97;;;7.57;;
21034;SDS011;10676;50.848;3.272;2022-07-05T14:42:58;8.70;;;8.30;;
21034;SDS011;10676;50.848;3.272;2022-07-05T14:45:24;8.38;;;7.88;;
21034;SDS011;10676;50.848;3.272;2022-07-05T14:47:51;8.88;;;8.38;;
21034;SDS011;10676;50.848;3.272;2022-07-05T14:50:17;8.60;;;8.00;;
21034;SDS011;10676;50.848;3.272;2022-07-05T14:52:43;8.93;;;8.32;;
21034;SDS011;10676;50.848;3.272;2022-07-05T14:55:10;8.75;;;8.35;;
21034;SDS011;10676;50.848;3.272;2022-07-05T14:57:36;8.35;;;7.95;;
21034;SDS011;10676;50.848;3.272;2022-07-05T15:00:07;9.25;;;8.75;;
21034;SDS011;10676;50.848;3.272;2022-07-05T15:02:35;8.40;;;8.00;;
21034;SDS011;10676;50.848;3.272;2022-07-05T15:05:01;9.57;;;8.68;;
21034;SDS011;10676;50.848;3.272;2022-07-05T15:07:28;8.38;;;7.88;;
21034;SDS011;10676;50.848;3.272;2022-07-05T15:09:53;8.15;;;7.82;;
21034;SDS011;10676;50.848;3.272;2022-07-05T15:12:19;8.60;;;8.27;;
21034;SDS011;10676;50.848;3.272;2022-07-05T15:14:45;10.07;;;9.52;;
21034;SDS011;10676;50.848;3.272;2022-07-05T15:17:11;9.10;;;8.40;;
21034;SDS011;10676;50.848;3.272;2022-07-05T15:19:36;10.02;;;9.32;;